Time;durP1;ratioP1;P1;durP2;ratioP2;P2;SDS_P1;SDS_P2;PMS_P1;PMS_P2;Temp;Humidity;BMP_temperature;BMP_pressure;BME280_temperature;BME280_humidity;BME280_pressure;Samples;Min_cycle;Max_cycle;Signal;HPM_P1;HPM_P2
2021/05/17 00:00:21;;;;;;;11.82;8.80;;;9.30;99.50;;;;;;5105174;28;20506;-47
2021/05/17 00:02:48;;;;;;;11.15;8.00;;;9.30;99.70;;;;;;5106286;28;20048;-47
2021/05/17 00:05:15;;;;;;;13.68;8.38;;;9.30;99.70;;;;;;5109042;27;20044;-47
2021/05/17 00:07:42;;;;;;;10.85;8.52;;;9.30;99.80;;;;;;5109749;28;20043;-48
2021/05/17 00:10:11;;;;;;;12.07;8.23;;;9.30;99.80;;;;;;5109194;28;20051;-50
2021/05/17 00:12:40;;;;;;;11.93;9.45;;;9.40;99.80;;;;;;5107478;28;20433;-48
2021/05/17 00:15:11;;;;;;;18.27;9.68;;;9.40;99.70;;;;;;5110730;28;20558;-46
2021/05/17 00:17:37;;;;;;;15.65;9.48;;;9.40;99.70;;;;;;5110322;28;20415;-50
2021/05/17 00:20:06;;;;;;;16.55;9.85;;;9.50;99.70;;;;;;5109389;28;20128;-47
2021/05/17 00:22:35;;;;;;;14.05;9.57;;;9.50;99.90;;;;;;5103740;28;20103;-51
2021/05/17 00:25:03;;;;;;;12.23;9.68;;;9.50;99.90;;;;;;5110351;28;20044;-48
2021/05/17 00:27:29;;;;;;;12.00;9.63;;;9.60;99.90;;;;;;5110064;28;20036;-49
2021/05/17 00:30:16;;;;;;;13.25;10.73;;;9.60;99.90;;;;;;5110571;27;20052;-46
2021/05/17 00:32:43;;;;;;;14.23;9.95;;;9.60;99.90;;;;;;5108516;27;20055;-50
2021/05/17 00:35:12;;;;;;;13.98;9.25;;;9.50;99.90;;;;;;5110658;27;20072;-52
2021/05/17 00:37:38;;;;;;;19.90;9.25;;;9.50;99.90;;;;;;5109477;28;20048;-53
2021/05/17 00:40:16;;;;;;;14.50;9.50;;;9.50;99.90;;;;;;5109619;28;20570;-50
2021/05/17 00:42:45;;;;;;;14.23;10.45;;;9.50;99.90;;;;;;5111187;27;20051;-49
2021/05/17 00:45:16;;;;;;;10.75;9.40;;;9.40;99.90;;;;;;5109105;28;20058;-46
2021/05/17 00:47:47;;;;;;;13.10;8.83;;;9.40;99.90;;;;;;5109028;28;20047;-48
2021/05/17 00:50:23;;;;;;;16.98;11.43;;;9.30;99.90;;;;;;5103595;28;20047;-47
2021/05/17 00:52:51;;;;;;;15.70;10.30;;;9.30;99.90;;;;;;5106507;27;20054;-46
2021/05/17 00:55:19;;;;;;;13.77;10.23;;;9.30;99.90;;;;;;5109011;28;20453;-47
2021/05/17 00:57:46;;;;;;;13.50;10.90;;;9.30;99.90;;;;;;5106807;27;20422;-49
2021/05/17 01:00:19;;;;;;;16.27;10.80;;;9.30;99.90;;;;;;5108253;28;20050;-46
2021/05/17 01:02:52;;;;;;;17.30;11.30;;;9.20;99.90;;;;;;5109132;27;20089;-46
2021/05/17 01:05:41;;;;;;;16.08;10.25;;;9.20;99.90;;;;;;5105569;28;20149;-49
2021/05/17 01:08:22;;;;;;;15.75;11.77;;;9.20;99.90;;;;;;5099751;28;20051;-46
2021/05/17 01:10:56;;;;;;;18.15;11.85;;;9.10;99.90;;;;;;5115069;27;20103;-49
2021/05/17 01:13:23;;;;;;;15.10;11.77;;;9.10;99.90;;;;;;5123422;27;20055;-51
2021/05/17 01:15:51;;;;;;;16.88;12.45;;;9.10;99.90;;;;;;5109913;27;20142;-47
2021/05/17 01:18:18;;;;;;;15.30;10.65;;;9.10;99.90;;;;;;5106596;28;20082;-45
2021/05/17 01:20:47;;;;;;;18.45;11.38;;;9.10;99.90;;;;;;5105304;28;20044;-47
2021/05/17 01:25:56;;;;;;;18.30;12.55;;;9.10;99.90;;;;;;5120939;27;20338;-49
2021/05/17 01:28:29;;;;;;;16.83;12.38;;;9.20;99.90;;;;;;5107716;28;20051;-47
2021/05/17 01:31:03;;;;;;;13.98;11.55;;;9.10;99.90;;;;;;5108735;27;20044;-48
2021/05/17 01:33:40;;;;;;;17.45;12.35;;;9.10;99.90;;;;;;5107447;27;20050;-48
2021/05/17 01:36:13;;;;;;;21.15;14.70;;;9.10;99.90;;;;;;5101514;28;20051;-48
2021/05/17 01:39:11;;;;;;;15.32;12.07;;;9.10;99.90;;;;;;5105962;28;20052;-47
2021/05/17 01:41:41;;;;;;;18.40;13.00;;;9.20;99.90;;;;;;5104403;28;20051;-47
2021/05/17 01:44:12;;;;;;;21.20;15.00;;;9.10;99.90;;;;;;5106697;27;20051;-46
2021/05/17 01:46:40;;;;;;;20.55;14.50;;;9.10;99.90;;;;;;5107604;27;20050;-46
2021/05/17 01:49:18;;;;;;;19.88;14.05;;;9.20;99.90;;;;;;5106076;28;20043;-47
2021/05/17 01:51:49;;;;;;;16.38;12.13;;;9.20;99.90;;;;;;5118200;27;20081;-48
2021/05/17 01:54:20;;;;;;;19.13;13.23;;;9.20;99.90;;;;;;5109282;27;20048;-45
2021/05/17 01:56:51;;;;;;;19.20;15.18;;;9.20;99.90;;;;;;5105167;27;20690;-46
2021/05/17 01:59:35;;;;;;;21.85;15.02;;;9.20;99.90;;;;;;5104526;28;20650;-50
2021/05/17 02:02:07;;;;;;;17.67;13.20;;;9.20;99.90;;;;;;5116742;27;20045;-47
2021/05/17 02:04:35;;;;;;;19.63;14.68;;;9.20;99.90;;;;;;5105752;28;20063;-52
2021/05/17 02:07:02;;;;;;;17.05;13.38;;;9.20;99.90;;;;;;5105225;28;20130;-48
2021/05/17 02:09:37;;;;;;;20.45;14.80;;;9.20;99.90;;;;;;5113664;27;20035;-47
2021/05/17 02:12:04;;;;;;;25.67;15.90;;;9.20;99.90;;;;;;5107187;28;20043;-46
2021/05/17 02:14:55;;;;;;;20.90;15.25;;;9.20;99.90;;;;;;5089789;28;20051;-48
2021/05/17 02:17:24;;;;;;;23.05;16.55;;;9.20;99.90;;;;;;5101642;27;20138;-46
2021/05/17 02:19:52;;;;;;;22.52;16.08;;;9.30;99.90;;;;;;5105808;28;20048;-47
2021/05/17 02:22:22;;;;;;;25.27;17.77;;;9.30;99.90;;;;;;5109421;27;20041;-50
2021/05/17 02:25:02;;;;;;;26.23;18.17;;;9.30;99.90;;;;;;5105585;28;20060;-46
2021/05/17 02:27:29;;;;;;;21.30;16.02;;;9.30;99.90;;;;;;5108754;27;20100;-46
2021/05/17 02:29:58;;;;;;;24.42;17.42;;;9.30;99.90;;;;;;5122020;27;20058;-46
2021/05/17 02:32:25;;;;;;;23.00;15.95;;;9.30;99.90;;;;;;5107032;28;20050;-47
2021/05/17 02:34:57;;;;;;;21.15;16.45;;;9.30;99.90;;;;;;5102985;28;20126;-46
2021/05/17 02:37:26;;;;;;;26.02;16.98;;;9.30;99.90;;;;;;5103714;27;20063;-47
2021/05/17 02:39:52;;;;;;;21.00;16.33;;;9.40;99.90;;;;;;5105290;28;20063;-47
2021/05/17 02:42:28;;;;;;;27.38;17.20;;;9.40;99.90;;;;;;5102048;28;20126;-46
2021/05/17 02:44:58;;;;;;;23.90;16.23;;;9.40;99.90;;;;;;5105709;28;20096;-45
2021/05/17 02:47:25;;;;;;;21.10;15.57;;;9.40;99.90;;;;;;5100305;28;20092;-49
2021/05/17 02:49:54;;;;;;;26.35;16.55;;;9.30;99.90;;;;;;5107733;28;20051;-52
2021/05/17 02:52:22;;;;;;;23.10;16.60;;;9.30;99.90;;;;;;5105829;28;20044;-49
2021/05/17 02:55:19;;;;;;;21.52;17.08;;;9.30;99.90;;;;;;5107199;28;20091;-47
2021/05/17 02:58:04;;;;;;;19.88;15.65;;;9.30;99.90;;;;;;5109992;27;20047;-47
2021/05/17 03:00:33;;;;;;;23.40;16.75;;;9.30;99.90;;;;;;5104388;28;21182;-46
2021/05/17 03:03:10;;;;;;;19.97;15.07;;;9.30;99.90;;;;;;5107760;28;20044;-48
2021/05/17 03:05:44;;;;;;;24.05;17.45;;;9.30;99.90;;;;;;5111633;28;20104;-46
2021/05/17 03:08:25;;;;;;;23.95;18.77;;;9.30;99.90;;;;;;5108406;28;20152;-48
2021/05/17 03:10:53;;;;;;;19.92;15.80;;;9.30;99.90;;;;;;5106332;28;20048;-52
2021/05/17 03:13:22;;;;;;;26.50;19.20;;;9.40;99.90;;;;;;5105546;28;20450;-49
2021/05/17 03:15:51;;;;;;;27.40;18.73;;;9.30;99.90;;;;;;5107207;28;20047;-46
2021/05/17 03:18:18;;;;;;;19.70;15.52;;;9.30;99.90;;;;;;5102919;28;20047;-47
2021/05/17 03:20:47;;;;;;;21.42;16.75;;;9.40;99.90;;;;;;5107979;28;20128;-49
2021/05/17 03:23:16;;;;;;;22.45;16.95;;;9.40;99.90;;;;;;5105512;28;20081;-50
2021/05/17 03:25:46;;;;;;;21.85;16.98;;;9.40;99.90;;;;;;5107568;28;20047;-47
2021/05/17 03:28:14;;;;;;;26.65;19.88;;;9.40;99.90;;;;;;5106775;28;20044;-46
2021/05/17 03:30:41;;;;;;;26.38;19.63;;;9.30;99.90;;;;;;5105860;28;20051;-49
2021/05/17 03:33:07;;;;;;;22.75;18.10;;;9.30;99.90;;;;;;5107554;28;20678;-47
2021/05/17 03:35:40;;;;;;;26.48;20.13;;;9.30;99.90;;;;;;5106736;28;20798;-51
2021/05/17 03:38:09;;;;;;;26.27;21.00;;;9.30;99.90;;;;;;5104081;28;20484;-48
2021/05/17 03:40:37;;;;;;;28.13;20.75;;;9.40;99.90;;;;;;5106782;28;20043;-49
2021/05/17 03:43:06;;;;;;;26.55;19.38;;;9.40;99.90;;;;;;5109355;28;20082;-46
2021/05/17 03:45:33;;;;;;;27.85;21.02;;;9.40;99.90;;;;;;5109759;28;20047;-49
2021/05/17 03:48:01;;;;;;;24.40;20.42;;;9.40;99.90;;;;;;5111179;28;20065;-46
2021/05/17 03:50:27;;;;;;;22.88;18.75;;;9.40;99.90;;;;;;5111059;27;20392;-49
2021/05/17 03:52:53;;;;;;;25.30;20.48;;;9.40;99.90;;;;;;5108847;27;20050;-47
2021/05/17 03:55:24;;;;;;;25.55;20.85;;;9.40;99.90;;;;;;5110201;28;20071;-48
2021/05/17 03:57:50;;;;;;;27.80;20.38;;;9.40;99.90;;;;;;5108458;27;20043;-48
2021/05/17 04:00:17;;;;;;;24.83;20.73;;;9.40;99.90;;;;;;5110031;28;20126;-48
2021/05/17 04:02:46;;;;;;;24.35;18.88;;;9.40;99.90;;;;;;5110771;27;20043;-46
2021/05/17 04:12:26;;;;;;;23.95;19.77;;;9.50;99.90;;;;;;5106234;28;20052;-50
2021/05/17 04:13:46;;;;;;;24.45;20.10;;;9.50;99.90;;;;;;5111120;27;20054;-48
2021/05/17 04:16:15;;;;;;;26.30;20.75;;;9.50;99.90;;;;;;5109640;27;20044;-47
2021/05/17 04:18:42;;;;;;;25.35;19.95;;;9.50;99.90;;;;;;5109588;28;20040;-46
2021/05/17 04:21:10;;;;;;;28.08;21.33;;;9.50;99.90;;;;;;5110006;28;20050;-49
2021/05/17 04:23:39;;;;;;;28.00;20.80;;;9.50;99.90;;;;;;5108122;27;20123;-50
2021/05/17 04:26:07;;;;;;;22.85;19.15;;;9.50;99.90;;;;;;5106901;28;20066;-47
2021/05/17 04:28:34;;;;;;;28.08;21.17;;;9.50;99.90;;;;;;5112973;27;20080;-50
2021/05/17 04:31:00;;;;;;;28.33;22.25;;;9.60;99.90;;;;;;5109950;28;20044;-49
2021/05/17 04:33:31;;;;;;;25.85;19.85;;;9.60;99.90;;;;;;5112718;27;20057;-50
2021/05/17 04:35:59;;;;;;;29.67;22.70;;;9.60;99.90;;;;;;5109798;28;20047;-47
2021/05/17 04:38:28;;;;;;;26.98;21.30;;;9.60;99.90;;;;;;5112017;28;20534;-47
2021/05/17 04:40:58;;;;;;;23.38;19.30;;;9.70;99.90;;;;;;5108875;28;20048;-48
2021/05/17 04:43:27;;;;;;;25.67;20.30;;;9.70;99.90;;;;;;5116109;27;20050;-48
2021/05/17 04:45:55;;;;;;;23.05;18.75;;;9.70;99.90;;;;;;5109391;27;20052;-49
2021/05/17 04:48:21;;;;;;;28.67;19.85;;;9.70;99.90;;;;;;5109281;28;20082;-46
2021/05/17 04:50:47;;;;;;;22.48;19.85;;;9.80;99.90;;;;;;5111365;28;20048;-45
2021/05/17 04:53:15;;;;;;;24.98;20.95;;;9.80;99.90;;;;;;5107756;28;20047;-46
2021/05/17 04:55:44;;;;;;;22.98;17.00;;;9.80;99.90;;;;;;5109030;28;20078;-46
2021/05/17 04:58:10;;;;;;;27.02;19.83;;;9.80;99.90;;;;;;5111219;27;20380;-48
2021/05/17 05:00:37;;;;;;;21.50;18.27;;;9.80;99.90;;;;;;5108183;28;20058;-47
2021/05/17 05:03:05;;;;;;;20.23;17.15;;;9.90;99.90;;;;;;5108966;28;20075;-45
2021/05/17 05:05:32;;;;;;;21.20;17.35;;;9.90;99.90;;;;;;5116106;27;20126;-45
2021/05/17 05:08:01;;;;;;;22.40;16.63;;;9.90;99.90;;;;;;5104013;27;20062;-47
2021/05/17 05:10:27;;;;;;;20.48;17.52;;;10.00;99.90;;;;;;5108581;28;20506;-48
2021/05/17 05:12:56;;;;;;;18.60;15.52;;;10.00;99.90;;;;;;5106120;28;20637;-46
2021/05/17 05:15:25;;;;;;;19.85;17.05;;;10.00;99.90;;;;;;5109359;28;20058;-45
2021/05/17 05:17:56;;;;;;;17.80;14.52;;;10.10;99.90;;;;;;5108696;27;20078;-45
2021/05/17 05:20:24;;;;;;;17.63;13.50;;;10.20;99.90;;;;;;5117845;27;20040;-52
2021/05/17 05:22:53;;;;;;;16.67;13.82;;;10.30;99.90;;;;;;5107223;28;20746;-46
2021/05/17 05:25:22;;;;;;;15.52;13.85;;;10.40;99.90;;;;;;5105219;27;20047;-45
2021/05/17 05:27:53;;;;;;;16.17;13.55;;;10.50;99.90;;;;;;5106528;28;20051;-47
2021/05/17 05:30:40;;;;;;;15.90;14.13;;;10.50;99.90;;;;;;5120888;27;20039;-46
2021/05/17 05:33:15;;;;;;;16.48;12.43;;;10.60;99.90;;;;;;5086590;27;20617;-48
2021/05/17 05:35:47;;;;;;;14.40;12.07;;;10.60;99.90;;;;;;5110018;28;20043;-53
2021/05/17 05:38:13;;;;;;;13.68;11.98;;;10.70;99.90;;;;;;5105446;27;20043;-49
2021/05/17 05:40:40;;;;;;;14.60;13.05;;;10.80;99.90;;;;;;5101663;28;20048;-47
2021/05/17 05:43:06;;;;;;;14.77;12.63;;;10.70;99.90;;;;;;5104287;28;20503;-47
2021/05/17 05:45:45;;;;;;;13.48;12.00;;;10.80;99.90;;;;;;5108985;28;20048;-47
2021/05/17 05:48:11;;;;;;;14.00;12.20;;;10.80;99.90;;;;;;5105234;27;20051;-49
2021/05/17 05:50:40;;;;;;;16.50;13.43;;;10.90;99.90;;;;;;5122695;27;20100;-49
2021/05/17 05:53:09;;;;;;;126.90;111.10;;;10.90;99.90;;;;;;5115606;27;20055;-48
2021/05/17 05:55:38;;;;;;;34.03;28.08;;;11.00;99.90;;;;;;5108259;27;20055;-48
2021/05/17 05:58:05;;;;;;;43.83;35.38;;;11.10;99.90;;;;;;5121457;27;20047;-48
2021/05/17 06:00:32;;;;;;;16.13;12.98;;;11.20;99.90;;;;;;5123171;27;20055;-49
2021/05/17 06:03:03;;;;;;;29.17;25.30;;;11.20;99.80;;;;;;5122881;27;20491;-46
2021/05/17 06:05:33;;;;;;;17.13;15.00;;;11.30;99.90;;;;;;5110028;27;20062;-46
2021/05/17 06:08:01;;;;;;;34.83;31.10;;;11.30;99.70;;;;;;5121238;27;20506;-50
2021/05/17 06:10:28;;;;;;;21.98;17.02;;;11.40;99.80;;;;;;5092972;27;20052;-49
2021/05/17 06:12:58;;;;;;;13.55;12.20;;;11.40;99.60;;;;;;5096574;27;20055;-52
2021/05/17 06:15:25;;;;;;;37.33;33.33;;;11.40;99.40;;;;;;5100340;27;20039;-48
2021/05/17 06:17:51;;;;;;;24.27;20.77;;;11.40;99.60;;;;;;5091955;28;20134;-49
2021/05/17 06:20:18;;;;;;;21.75;17.35;;;11.50;99.60;;;;;;5090384;28;20146;-45
2021/05/17 06:22:47;;;;;;;49.65;41.92;;;11.50;99.40;;;;;;5096396;28;20131;-47
2021/05/17 06:25:19;;;;;;;26.98;23.15;;;11.40;99.30;;;;;;5095909;28;20090;-49
2021/05/17 06:27:47;;;;;;;14.63;12.77;;;11.40;99.30;;;;;;5095956;28;20108;-47
2021/05/17 06:30:14;;;;;;;15.25;13.68;;;11.40;99.30;;;;;;5093207;28;20058;-48
2021/05/17 06:32:41;;;;;;;26.05;21.67;;;11.40;99.60;;;;;;5093022;28;20055;-48
2021/05/17 06:35:09;;;;;;;15.10;13.48;;;11.30;99.50;;;;;;5091640;28;20048;-50
2021/05/17 06:37:35;;;;;;;15.13;13.40;;;11.30;99.50;;;;;;5098160;28;20054;-47
2021/05/17 06:40:05;;;;;;;23.10;19.65;;;11.30;99.50;;;;;;5095760;27;20052;-49
2021/05/17 06:42:32;;;;;;;33.15;28.58;;;11.30;99.60;;;;;;5093016;28;20167;-49
2021/05/17 06:45:01;;;;;;;34.53;30.33;;;11.40;99.20;;;;;;5094336;28;20516;-48
2021/05/17 06:47:27;;;;;;;11.57;10.38;;;11.40;98.90;;;;;;5090580;28;20051;-47
2021/05/17 06:49:56;;;;;;;25.50;20.88;;;11.40;99.00;;;;;;5095020;28;20051;-47
2021/05/17 06:52:25;;;;;;;11.23;9.98;;;11.40;99.30;;;;;;5094452;28;20048;-49
2021/05/17 06:54:59;;;;;;;11.00;9.05;;;11.50;98.90;;;;;;5094797;28;20054;-45
2021/05/17 07:00:05;;;;;;;11.38;9.38;;;11.60;98.70;;;;;;5092766;28;20055;-46
2021/05/17 07:02:31;;;;;;;9.77;8.88;;;11.70;98.40;;;;;;5092592;28;20048;-48
2021/05/17 07:05:02;;;;;;;10.35;8.95;;;11.90;98.40;;;;;;5090698;28;20060;-48
2021/05/17 07:12:52;;;;;;;16.23;14.60;;;12.40;98.20;;;;;;5093555;28;20101;-48
2021/05/17 07:15:18;;;;;;;16.23;14.63;;;12.60;97.30;;;;;;5101031;28;20108;-47
2021/05/17 07:17:45;;;;;;;14.98;13.48;;;12.80;97.90;;;;;;5097305;28;20047;-50
2021/05/17 07:20:14;;;;;;;16.30;14.68;;;13.10;97.80;;;;;;5098758;28;20051;-45
2021/05/17 07:25:25;;;;;;;19.40;17.40;;;13.30;97.10;;;;;;5102586;28;20068;-47
2021/05/17 07:27:53;;;;;;;16.35;13.63;;;13.30;97.30;;;;;;5101351;27;20051;-48
2021/05/17 07:30:20;;;;;;;15.82;14.27;;;13.10;96.10;;;;;;5105621;27;20437;-49
2021/05/17 07:32:48;;;;;;;21.30;19.17;;;13.00;95.80;;;;;;5098349;28;20392;-49
2021/05/17 07:35:14;;;;;;;17.52;15.43;;;12.90;95.90;;;;;;5099378;28;20052;-51
2021/05/17 07:37:41;;;;;;;17.15;15.38;;;13.00;95.90;;;;;;5101726;27;20050;-53
2021/05/17 07:40:07;;;;;;;21.13;18.48;;;13.10;96.50;;;;;;5096481;28;20075;-50
2021/05/17 07:42:35;;;;;;;25.23;22.70;;;13.20;95.90;;;;;;5099237;27;20067;-51
2021/05/17 07:45:05;;;;;;;26.98;24.02;;;13.30;95.00;;;;;;5098494;28;20090;-47
2021/05/17 07:47:34;;;;;;;14.82;13.32;;;13.60;95.60;;;;;;5107691;28;20036;-46
2021/05/17 07:50:02;;;;;;;14.95;13.50;;;14.00;95.80;;;;;;5103137;28;20071;-48
2021/05/17 07:52:29;;;;;;;18.63;15.00;;;14.20;95.50;;;;;;5101545;28;20632;-51
2021/05/17 07:54:57;;;;;;;14.20;12.73;;;14.10;93.20;;;;;;5099063;28;20039;-51
2021/05/17 07:57:24;;;;;;;15.48;12.38;;;13.90;93.50;;;;;;5097648;27;20044;-53
2021/05/17 07:59:52;;;;;;;14.40;10.80;;;13.80;94.40;;;;;;5096834;28;20090;-52
2021/05/17 08:02:21;;;;;;;11.73;10.18;;;13.80;94.20;;;;;;5096554;28;20059;-53
2021/05/17 08:04:51;;;;;;;12.02;10.75;;;13.80;94.10;;;;;;5095231;28;20059;-50
2021/05/17 08:07:22;;;;;;;12.02;10.00;;;14.20;92.80;;;;;;5100460;28;20340;-52
2021/05/17 08:09:49;;;;;;;10.50;9.35;;;14.60;93.50;;;;;;5097801;28;20060;-51
2021/05/17 08:12:16;;;;;;;9.63;8.43;;;14.80;92.90;;;;;;5100540;28;20070;-46
2021/05/17 08:14:47;;;;;;;12.07;9.27;;;14.60;92.60;;;;;;5094989;28;20047;-50
2021/05/17 08:17:14;;;;;;;;;;;14.50;92.80;;;;;;5095456;28;20126;-47
2021/05/17 08:19:46;;;;;;;13.60;9.95;;;14.10;90.60;;;;;;5096282;28;19924;-50
2021/05/17 08:22:13;;;;;;;11.88;9.40;;;13.90;92.80;;;;;;5095647;28;20054;-49
2021/05/17 08:24:39;;;;;;;49.47;43.95;;;13.90;93.80;;;;;;5100099;28;20082;-49
2021/05/17 08:27:08;;;;;;;12.32;9.15;;;13.90;93.90;;;;;;5096473;28;20052;-47
2021/05/17 08:29:37;;;;;;;11.20;8.82;;;13.90;93.90;;;;;;5096845;28;20047;-48
2021/05/17 08:32:09;;;;;;;12.15;10.77;;;13.80;93.90;;;;;;5094961;28;20048;-48
2021/05/17 08:34:37;;;;;;;10.23;8.32;;;13.90;94.60;;;;;;5096177;28;20101;-48
2021/05/17 08:37:04;;;;;;;8.93;8.02;;;14.10;94.00;;;;;;5095410;28;20060;-49
2021/05/17 08:39:30;;;;;;;14.48;11.55;;;14.50;94.10;;;;;;5102031;27;20055;-51
2021/05/17 08:41:58;;;;;;;17.48;13.43;;;14.70;93.70;;;;;;5099788;27;20097;-49
2021/05/17 08:44:26;;;;;;;9.80;6.93;;;14.60;93.10;;;;;;5100406;27;20059;-50
2021/05/17 08:46:53;;;;;;;10.00;6.80;;;14.50;92.70;;;;;;5089879;28;20047;-51
2021/05/17 08:49:20;;;;;;;11.75;8.57;;;14.30;92.10;;;;;;5097080;28;20537;-50
2021/05/17 08:51:47;;;;;;;8.57;6.60;;;14.30;92.70;;;;;;5097889;27;20043;-46
2021/05/17 08:54:14;;;;;;;8.32;6.80;;;14.50;92.40;;;;;;5097541;27;20044;-49
2021/05/17 08:56:48;;;;;;;7.72;5.55;;;14.90;92.70;;;;;;5093551;28;20066;-51
2021/05/17 08:59:16;;;;;;;7.95;5.70;;;15.20;92.10;;;;;;5094970;27;20499;-53
2021/05/17 09:01:46;;;;;;;7.68;6.15;;;15.50;91.40;;;;;;5095931;28;20109;-52
2021/05/17 09:04:17;;;;;;;7.97;6.22;;;16.10;91.50;;;;;;5096214;28;20056;-51
2021/05/17 09:06:51;;;;;;;4.95;4.32;;;16.50;91.40;;;;;;5095734;28;20138;-49
2021/05/17 09:09:22;;;;;;;6.70;5.13;;;16.20;90.00;;;;;;5095927;28;20478;-51
2021/05/17 09:11:50;;;;;;;5.53;4.25;;;16.00;89.50;;;;;;5094350;28;20059;-53
2021/05/17 09:14:17;;;;;;;6.10;4.80;;;15.80;90.20;;;;;;5096797;28;20475;-52
2021/05/17 09:17:02;;;;;;;7.20;4.63;;;15.40;89.90;;;;;;5095408;28;20056;-51
2021/05/17 09:19:35;;;;;;;7.32;4.63;;;15.10;90.30;;;;;;5095052;28;20582;-52
2021/05/17 09:22:10;;;;;;;6.93;4.28;;;14.90;90.30;;;;;;5104261;28;20075;-50
2021/05/17 09:24:49;;;;;;;13.48;11.90;;;14.90;91.20;;;;;;5109694;27;20071;-51
2021/05/17 09:27:19;;;;;;;7.03;5.22;;;15.10;90.70;;;;;;5096284;28;20055;-50
2021/05/17 09:29:54;;;;;;;10.55;7.53;;;15.20;91.00;;;;;;5100561;28;20741;-51
2021/05/17 09:32:27;;;;;;;7.80;6.07;;;15.60;90.10;;;;;;5094975;28;20043;-52
2021/05/17 09:35:05;;;;;;;11.82;9.60;;;16.70;89.80;;;;;;5100332;28;20047;-49
2021/05/17 09:38:00;;;;;;;8.25;6.75;;;16.50;85.30;;;;;;5101591;27;20403;-50
2021/05/17 09:40:33;;;;;;;7.97;6.25;;;16.10;83.10;;;;;;5096237;28;20063;-49
2021/05/17 09:43:06;;;;;;;6.20;4.90;;;15.90;88.50;;;;;;5096422;28;20059;-52
2021/05/17 09:45:41;;;;;;;6.50;5.43;;;15.80;86.50;;;;;;5092845;28;20096;-47
2021/05/17 09:48:14;;;;;;;7.25;5.03;;;15.40;85.70;;;;;;5097531;28;20757;-51
2021/05/17 09:50:56;;;;;;;7.32;4.95;;;15.50;87.70;;;;;;5096493;28;20492;-47
2021/05/17 09:53:56;;;;;;;5.93;4.72;;;16.20;85.80;;;;;;5097129;28;20071;-52
2021/05/17 09:56:23;;;;;;;9.02;7.68;;;16.50;84.00;;;;;;5071896;28;20043;-51
2021/05/17 09:58:57;;;;;;;7.45;4.95;;;17.10;86.90;;;;;;5072052;28;20060;-51
2021/05/17 10:01:30;;;;;;;7.35;4.47;;;17.10;87.00;;;;;;5074129;28;20060;-51
2021/05/17 10:04:06;;;;;;;4.47;3.95;;;17.10;87.00;;;;;;5070987;28;20052;-51
2021/05/17 10:06:32;;;;;;;7.85;6.00;;;16.90;85.50;;;;;;5071393;28;20044;-49
2021/05/17 10:09:01;;;;;;;4.80;4.00;;;16.70;86.30;;;;;;5071266;28;20048;-51
2021/05/17 10:11:28;;;;;;;6.78;5.55;;;16.50;85.90;;;;;;5069955;28;20063;-51
2021/05/17 10:13:55;;;;;;;5.03;4.35;;;16.20;85.30;;;;;;5074096;28;20048;-47
2021/05/17 10:16:22;;;;;;;6.90;5.15;;;15.80;86.60;;;;;;5073579;28;20076;-46
2021/05/17 10:18:49;;;;;;;4.70;3.33;;;15.40;86.90;;;;;;5073534;28;20056;-47
2021/05/17 10:21:17;;;;;;;5.00;2.80;;;14.70;89.80;;;;;;5055177;28;20060;-51
2021/05/17 10:23:46;;;;;;;4.47;3.40;;;14.30;91.30;;;;;;5071966;28;20048;-52
2021/05/17 10:26:16;;;;;;;6.53;4.65;;;13.90;91.30;;;;;;5071354;28;20083;-47
2021/05/17 10:28:56;;;;;;;7.10;3.50;;;13.60;92.80;;;;;;5073325;28;20051;-51
2021/05/17 10:31:24;;;;;;;5.03;3.42;;;13.50;93.40;;;;;;5059424;28;20044;-50
2021/05/17 10:34:01;;;;;;;4.47;3.85;;;13.30;93.60;;;;;;5090652;28;20071;-51
2021/05/17 10:37:04;;;;;;;6.70;5.13;;;13.10;94.50;;;;;;5100371;28;20625;-53
2021/05/17 10:39:40;;;;;;;15.32;12.10;;;13.10;95.90;;;;;;5098857;28;20073;-52
2021/05/17 10:48:08;;;;;;;4.50;2.90;;;13.20;95.50;;;;;;5105695;28;20097;-47
2021/05/17 10:50:35;;;;;;;4.93;3.10;;;13.40;94.60;;;;;;5096321;28;20052;-48
2021/05/17 10:53:05;;;;;;;4.85;3.25;;;13.50;94.70;;;;;;5098110;28;20044;-48
2021/05/17 10:55:34;;;;;;;4.43;3.50;;;13.50;94.20;;;;;;5099813;28;20059;-51
2021/05/17 10:58:22;;;;;;;6.18;4.28;;;13.60;94.50;;;;;;5097282;28;20048;-51
2021/05/17 11:00:49;;;;;;;9.18;7.20;;;13.60;94.00;;;;;;5096144;28;20048;-53
2021/05/17 11:03:25;;;;;;;6.85;6.10;;;13.80;94.40;;;;;;5100462;28;20101;-49
2021/05/17 11:05:54;;;;;;;6.68;5.15;;;14.00;94.30;;;;;;5097992;28;20077;-51
2021/05/17 11:08:26;;;;;;;8.70;7.22;;;14.10;94.40;;;;;;5097790;28;20058;-52
2021/05/17 11:10:54;;;;;;;7.28;6.43;;;14.00;93.80;;;;;;5097483;28;20060;-47
2021/05/17 11:13:31;;;;;;;8.43;6.13;;;14.00;94.10;;;;;;5099650;28;20059;-51
2021/05/17 11:16:07;;;;;;;7.32;6.32;;;14.10;94.20;;;;;;5098044;28;20563;-49
2021/05/17 11:18:39;;;;;;;7.60;6.10;;;14.20;94.40;;;;;;5098170;28;20048;-53
2021/05/17 11:21:13;;;;;;;6.30;5.70;;;14.20;94.40;;;;;;5099230;28;20134;-49
2021/05/17 11:23:39;;;;;;;5.88;5.28;;;14.20;94.40;;;;;;5098139;28;20073;-52
2021/05/17 11:26:11;;;;;;;4.22;3.53;;;14.40;94.10;;;;;;5103202;28;20050;-48
2021/05/17 11:28:38;;;;;;;3.38;2.30;;;14.60;93.80;;;;;;5096478;28;20067;-49
2021/05/17 11:34:11;;;;;;;1.40;0.90;;;14.90;92.90;;;;;;5048908;28;20479;-52
2021/05/17 11:36:39;;;;;;;1.50;1.30;;;14.80;90.00;;;;;;5042476;28;20052;-53
2021/05/17 11:39:07;;;;;;;2.53;1.25;;;15.50;91.20;;;;;;5046026;28;20084;-50
2021/05/17 11:41:49;;;;;;;1.25;0.70;;;16.50;90.70;;;;;;5045142;28;20057;-52
2021/05/17 11:44:22;;;;;;;1.75;0.50;;;17.40;86.40;;;;;;5044169;28;20056;-51
2021/05/17 11:46:54;;;;;;;0.43;0.38;;;17.90;87.00;;;;;;5048261;28;20052;-51
2021/05/17 11:49:25;;;;;;;0.55;0.40;;;18.20;84.00;;;;;;5043578;28;20053;-54
2021/05/17 11:51:56;;;;;;;0.20;0.20;;;18.40;78.20;;;;;;5049742;28;20446;-54
2021/05/17 11:54:28;;;;;;;0.52;0.45;;;18.10;75.80;;;;;;5049275;28;20045;-52
2021/05/17 11:57:00;;;;;;;0.40;0.40;;;18.30;82.70;;;;;;5051088;28;20064;-54
2021/05/17 11:59:28;;;;;;;1.33;1.05;;;17.80;81.10;;;;;;5046459;28;20301;-55
2021/05/17 12:01:59;;;;;;;2.35;0.95;;;17.50;80.80;;;;;;5048938;28;20041;-54
2021/05/17 12:04:37;;;;;;;2.13;1.80;;;17.20;83.60;;;;;;5043080;28;20782;-52
2021/05/17 12:07:11;;;;;;;6.30;5.32;;;16.80;81.80;;;;;;5052639;28;20122;-55
2021/05/17 12:09:56;;;;;;;23.40;20.85;;;16.50;83.40;;;;;;5069405;28;20048;-53
2021/05/17 12:12:27;;;;;;;5.65;3.35;;;16.30;83.10;;;;;;5102129;28;20050;-56
2021/05/17 12:14:56;;;;;;;6.05;2.83;;;16.20;86.40;;;;;;5105285;27;20055;-55
2021/05/17 12:17:24;;;;;;;6.07;4.95;;;15.90;86.00;;;;;;5099194;27;20094;-52
2021/05/17 12:19:59;;;;;;;35.17;30.55;;;15.70;86.50;;;;;;5112736;27;20043;-57
2021/05/17 12:22:40;;;;;;;11.95;7.93;;;15.30;87.80;;;;;;5103771;28;20044;-53
2021/05/17 12:25:12;;;;;;;20.77;14.95;;;15.00;90.60;;;;;;5099936;28;20575;-55
2021/05/17 12:27:45;;;;;;;11.07;8.88;;;14.50;92.10;;;;;;5101942;28;20492;-54
2021/05/17 12:30:16;;;;;;;9.85;7.80;;;14.10;93.60;;;;;;5100251;28;20453;-52
2021/05/17 12:32:50;;;;;;;10.27;9.07;;;13.80;94.00;;;;;;5102568;28;20067;-54
2021/05/17 12:35:33;;;;;;;11.63;9.88;;;13.80;94.80;;;;;;5100529;28;20590;-51
2021/05/17 12:38:09;;;;;;;8.52;7.43;;;13.60;95.20;;;;;;5099765;28;20052;-55
2021/05/17 12:40:37;;;;;;;22.40;19.65;;;13.50;95.60;;;;;;5104766;27;20051;-52
2021/05/17 12:43:14;;;;;;;10.40;8.40;;;13.40;95.10;;;;;;5100962;28;20048;-52
2021/05/17 12:45:47;;;;;;;8.55;5.35;;;13.40;95.10;;;;;;5110969;27;20047;-51
2021/05/17 12:48:20;;;;;;;10.13;6.82;;;13.20;95.60;;;;;;5100073;28;20082;-51
2021/05/17 12:50:53;;;;;;;9.30;7.35;;;13.20;96.00;;;;;;5101115;28;20048;-51
2021/05/17 12:53:27;;;;;;;9.40;8.35;;;13.30;96.40;;;;;;5102158;28;20104;-53
2021/05/17 12:56:01;;;;;;;7.75;6.82;;;13.20;96.00;;;;;;5097798;28;20077;-48
2021/05/17 12:58:42;;;;;;;7.30;6.45;;;13.20;96.50;;;;;;5101287;28;20050;-52
2021/05/17 13:01:16;;;;;;;29.63;22.65;;;13.20;96.20;;;;;;5099334;28;20078;-47
2021/05/17 13:03:57;;;;;;;9.27;6.13;;;13.20;96.20;;;;;;5099903;28;20059;-51
2021/05/17 13:06:29;;;;;;;7.93;5.88;;;13.20;96.20;;;;;;5103075;28;20096;-50
2021/05/17 13:09:15;;;;;;;;;;;13.20;96.50;;;;;;5102604;28;20471;-48
2021/05/17 13:11:42;;;;;;;39.22;34.25;;;13.30;97.40;;;;;;5084457;28;19923;-47
2021/05/17 13:14:17;;;;;;;13.35;10.38;;;13.40;96.60;;;;;;5101275;28;20058;-49
2021/05/17 13:16:52;;;;;;;9.32;8.25;;;13.40;97.00;;;;;;5100102;28;20122;-47
2021/05/17 13:31:00;;;;;;;10.60;9.50;;;13.70;96.60;;;;;;5107676;28;20047;-55
2021/05/17 13:33:46;;;;;;;9.48;7.88;;;14.00;96.20;;;;;;5099073;28;20133;-49
2021/05/17 13:36:25;;;;;;;8.32;7.22;;;14.30;96.00;;;;;;5099028;28;20558;-48